createdAt,value
2019-05-01T00:03:08.482Z,8.07
2019-05-01T00:08:01.798Z,8.03
2019-05-01T00:12:55.140Z,8.40
2019-05-01T00:17:48.457Z,8.47
2019-05-01T00:22:41.883Z,9.43
2019-05-01T00:27:35.198Z,9.87
2019-05-01T00:32:28.535Z,8.63
2019-05-01T00:37:22.027Z,10.90
2019-05-01T00:42:15.354Z,9.70
2019-05-01T00:47:09.164Z,10.30
2019-05-01T00:52:02.693Z,8.70
2019-05-01T00:57:01.003Z,8.60
2019-05-01T01:02:12.001Z,8.83
2019-05-01T01:07:09.751Z,11.30
2019-05-01T01:12:03.661Z,9.63
2019-05-01T01:16:57.005Z,12.47
2019-05-01T01:21:50.336Z,10.43
2019-05-01T01:26:43.743Z,8.97
2019-05-01T01:31:37.499Z,10.70
2019-05-01T01:36:31.140Z,10.07
2019-05-01T01:41:24.466Z,10.30
2019-05-01T01:46:18.448Z,12.10
2019-05-01T01:51:11.868Z,12.10
2019-05-01T01:56:05.585Z,12.93
2019-05-01T02:01:09.959Z,10.27
2019-05-01T02:06:02.686Z,11.50
2019-05-01T02:10:56.053Z,11.63
2019-05-01T02:15:49.380Z,11.13
2019-05-01T02:20:42.913Z,12.07
2019-05-01T02:25:36.539Z,10.10
2019-05-01T02:30:29.882Z,12.67
2019-05-01T02:35:23.200Z,10.73
2019-05-01T02:40:41.835Z,13.17
2019-05-01T02:45:35.217Z,13.72
2019-05-01T02:50:28.522Z,11.67
2019-05-01T02:55:29.787Z,14.47
2019-05-01T03:00:23.706Z,7.70
2019-05-01T03:05:17.038Z,6.73
2019-05-01T03:10:10.492Z,8.67
2019-05-01T03:15:04.243Z,6.33
2019-05-01T03:20:17.733Z,5.50
2019-05-01T03:25:11.051Z,4.73
2019-05-01T03:30:04.487Z,5.33
2019-05-01T03:34:57.964Z,4.50
2019-05-01T03:39:51.328Z,6.33
2019-05-01T03:44:45.026Z,5.73
2019-05-01T03:49:38.400Z,7.93
2019-05-01T03:54:31.808Z,5.67
2019-05-01T03:59:25.410Z,7.33
2019-05-01T04:04:21.361Z,6.63
2019-05-01T04:09:14.972Z,6.37
2019-05-01T04:14:08.338Z,5.93
2019-05-01T04:19:01.766Z,7.20
2019-05-01T04:23:55.094Z,5.57
2019-05-01T04:29:21.012Z,6.83
2019-05-01T04:34:28.454Z,6.45
2019-05-01T04:39:21.971Z,6.03
2019-05-01T04:44:15.752Z,5.47
2019-05-01T04:49:09.319Z,6.13
2019-05-01T04:54:02.628Z,5.93
2019-05-01T04:58:56.093Z,6.60
2019-05-01T05:03:49.402Z,5.37
2019-05-01T05:08:42.917Z,6.33
2019-05-01T05:14:04.380Z,5.23
2019-05-01T05:18:57.698Z,5.83
2019-05-01T05:23:51.018Z,6.17
2019-05-01T05:28:45.066Z,5.80
2019-05-01T05:33:38.629Z,5.73
2019-05-01T05:38:57.309Z,5.73
2019-05-01T05:43:50.655Z,5.80
2019-05-01T05:48:44.230Z,4.37
2019-05-01T05:53:38.309Z,6.33
2019-05-01T05:58:41.620Z,5.47
2019-05-01T06:04:06.733Z,5.60
2019-05-01T06:09:00.154Z,6.33
2019-05-01T06:14:04.191Z,5.83
2019-05-01T06:19:04.860Z,4.63
2019-05-01T06:24:06.491Z,6.20
2019-05-01T06:29:00.799Z,4.62
2019-05-01T06:33:53.067Z,6.07
2019-05-01T06:38:43.829Z,4.53
2019-05-01T06:44:07.549Z,4.63
2019-05-01T06:49:10.850Z,4.67
2019-05-01T06:54:04.498Z,4.30
2019-05-01T06:58:58.185Z,8.47
2019-05-01T07:04:03.366Z,5.43
2019-05-01T07:08:44.939Z,5.57
2019-05-01T07:13:51.176Z,5.90
2019-05-01T07:18:44.583Z,4.57
2019-05-01T07:23:37.958Z,6.87
2019-05-01T07:28:34.359Z,7.23
2019-05-01T07:33:24.954Z,7.00
2019-05-01T07:38:18.293Z,6.03
2019-05-01T07:43:30.887Z,8.50
2019-05-01T07:48:30.688Z,13.67
2019-05-01T07:53:28.333Z,11.90
2019-05-01T07:58:18.157Z,10.60
2019-05-01T08:03:11.420Z,8.13
2019-05-01T08:08:07.957Z,11.67
2019-05-01T08:13:00.451Z,9.17
2019-05-01T08:17:53.223Z,9.73
2019-05-01T08:22:45.757Z,10.27
2019-05-01T08:27:58.125Z,8.63
2019-05-01T08:33:09.827Z,7.67
2019-05-01T08:38:02.259Z,5.67
2019-05-01T08:42:55.582Z,5.33
2019-05-01T08:47:56.718Z,6.03
2019-05-01T08:52:48.665Z,6.77
2019-05-01T08:57:40.972Z,6.60
2019-05-01T09:02:36.665Z,6.30
2019-05-01T09:07:27.766Z,8.83
2019-05-01T09:12:21.017Z,5.63
2019-05-01T09:17:14.497Z,7.13
2019-05-01T09:22:07.804Z,8.95
2019-05-01T09:27:23.788Z,9.00
2019-05-01T09:32:18.648Z,9.73
2019-05-01T09:37:09.551Z,6.87
2019-05-01T09:42:03.395Z,9.73
2019-05-01T09:46:56.881Z,6.17
2019-05-01T09:51:55.432Z,9.90
2019-05-01T09:56:48.730Z,9.13
2019-05-01T10:01:42.026Z,8.43
2019-05-01T10:06:35.351Z,11.90
2019-05-01T10:11:28.678Z,10.63
2019-05-01T10:16:22.001Z,12.63
2019-05-01T10:21:15.468Z,13.03
2019-05-01T10:26:08.901Z,15.10
2019-05-01T10:31:24.627Z,15.53
2019-05-01T10:36:30.787Z,13.87
2019-05-01T10:41:24.109Z,13.53
2019-05-01T10:46:17.449Z,12.97
2019-05-01T10:51:11.349Z,16.73
2019-05-01T10:56:04.854Z,13.37
2019-05-01T11:01:08.428Z,12.73
2019-05-01T11:06:01.745Z,12.87
2019-05-01T11:10:55.329Z,12.50
2019-05-01T11:15:49.028Z,11.27
2019-05-01T11:20:42.689Z,10.50
2019-05-01T11:25:36.419Z,11.67
2019-05-01T11:30:29.760Z,9.70
2019-05-01T11:35:48.584Z,10.67
2019-05-01T11:40:46.303Z,11.30
2019-05-01T11:45:39.630Z,10.23
2019-05-01T11:50:33.392Z,8.87
2019-05-01T11:55:26.728Z,9.30
2019-05-01T12:00:20.177Z,8.20
2019-05-01T12:05:13.862Z,8.97
2019-05-01T12:10:07.823Z,8.37
2019-05-01T12:15:01.155Z,9.67
2019-05-01T12:19:54.573Z,8.07
2019-05-01T12:24:47.909Z,8.87
2019-05-01T12:29:41.343Z,7.77
2019-05-01T12:34:34.681Z,6.73
2019-05-01T12:39:28.406Z,7.30
2019-05-01T12:44:22.041Z,9.50
2019-05-01T12:49:15.917Z,8.73
2019-05-01T12:54:17.015Z,8.70
2019-05-01T12:59:10.529Z,8.00
2019-05-01T13:04:03.849Z,6.57
2019-05-01T13:08:57.275Z,6.93
2019-05-01T13:13:50.914Z,7.43
2019-05-01T13:18:44.333Z,5.87
2019-05-01T13:23:37.748Z,6.63
2019-05-01T13:28:49.492Z,6.10
2019-05-01T13:33:42.822Z,8.33
2019-05-01T13:38:36.617Z,7.27
2019-05-01T13:43:29.923Z,7.23
2019-05-01T13:48:23.599Z,6.00
2019-05-01T13:53:16.907Z,7.83
2019-05-01T13:58:10.430Z,6.53
2019-05-01T14:03:03.766Z,5.90
2019-05-01T14:07:57.496Z,6.40
2019-05-01T14:12:51.186Z,6.97
2019-05-01T14:17:45.244Z,6.77
2019-05-01T14:22:56.163Z,6.10
2019-05-01T14:27:49.747Z,6.20
2019-05-01T14:32:43.059Z,6.50
2019-05-01T14:37:36.812Z,5.33
2019-05-01T14:42:30.139Z,7.40
2019-05-01T14:47:23.572Z,6.53
2019-05-01T14:52:17.005Z,6.63
2019-05-01T14:57:10.632Z,5.90
2019-05-01T15:02:03.977Z,6.73
2019-05-01T15:06:57.384Z,6.20
2019-05-01T15:11:50.699Z,5.67
2019-05-01T15:17:06.087Z,5.80
2019-05-01T15:21:59.664Z,4.87
2019-05-01T15:26:53.027Z,4.80
2019-05-01T15:31:46.352Z,5.70
2019-05-01T15:36:39.678Z,4.20
2019-05-01T15:41:52.459Z,4.10
2019-05-01T15:46:45.816Z,5.63
2019-05-01T15:51:39.315Z,4.47
2019-05-01T15:56:32.621Z,4.70
2019-05-01T16:01:25.971Z,4.60
2019-05-01T16:06:19.246Z,4.57
2019-05-01T16:11:20.839Z,4.40
2019-05-01T16:16:14.144Z,4.37
2019-05-01T16:21:07.563Z,5.77
2019-05-01T16:26:00.863Z,5.30
2019-05-01T16:30:54.389Z,4.40
2019-05-01T16:35:47.664Z,4.83
2019-05-01T16:40:54.741Z,7.70
2019-05-01T16:45:48.030Z,4.03
2019-05-01T16:50:41.319Z,3.50
2019-05-01T16:55:34.652Z,3.33
2019-05-01T17:01:00.427Z,2.47
2019-05-01T17:06:28.422Z,4.30
2019-05-01T17:11:26.524Z,3.30
2019-05-01T17:16:20.124Z,3.60
2019-05-01T17:21:13.488Z,2.60
2019-05-01T17:26:07.194Z,4.30
2019-05-01T17:31:00.901Z,3.10
2019-05-01T17:35:54.227Z,3.23
2019-05-01T17:40:52.106Z,3.27
2019-05-01T17:45:40.974Z,4.53
2019-05-01T17:50:34.390Z,3.63
2019-05-01T17:55:28.316Z,2.50
2019-05-01T18:00:56.187Z,3.03
2019-05-01T18:06:13.260Z,2.33
2019-05-01T18:11:09.278Z,3.00
2019-05-01T18:16:00.248Z,2.87
2019-05-01T18:20:53.983Z,2.90
2019-05-01T18:25:54.769Z,2.93
2019-05-01T18:30:51.608Z,2.30
2019-05-01T18:35:44.976Z,3.87
2019-05-01T18:40:44.322Z,2.67
2019-05-01T18:45:47.615Z,3.10
2019-05-01T18:50:40.959Z,2.60
2019-05-01T18:55:34.300Z,2.53
2019-05-01T19:00:27.782Z,3.07
2019-05-01T19:05:21.105Z,2.67
2019-05-01T19:10:14.799Z,3.80
2019-05-01T19:15:08.504Z,3.17
2019-05-01T19:20:01.859Z,2.77
2019-05-01T19:24:57.114Z,4.47
2019-05-01T19:29:48.543Z,2.83
2019-05-01T19:34:42.009Z,4.17
2019-05-01T19:39:43.545Z,2.30
2019-05-01T19:44:28.692Z,2.20
2019-05-01T19:49:24.512Z,3.23
2019-05-01T19:54:15.825Z,2.73
2019-05-01T19:59:09.183Z,4.50
2019-05-01T20:04:02.530Z,3.83
2019-05-01T20:08:55.864Z,3.20
2019-05-01T20:13:49.234Z,3.63
2019-05-01T20:18:42.705Z,2.60
2019-05-01T20:23:36.048Z,3.20
2019-05-01T20:28:29.672Z,3.07
2019-05-01T20:33:23.010Z,3.30
2019-05-01T20:38:16.515Z,3.83
2019-05-01T20:43:09.865Z,3.03
2019-05-01T20:48:03.409Z,3.37
2019-05-01T20:52:56.774Z,3.83
2019-05-01T20:57:50.342Z,4.83
2019-05-01T21:02:44.592Z,3.33
2019-05-01T21:07:45.363Z,3.17
2019-05-01T21:12:38.701Z,3.80
2019-05-01T21:17:32.142Z,3.03
2019-05-01T21:22:25.860Z,2.83
2019-05-01T21:27:19.213Z,3.73
2019-05-01T21:32:13.614Z,4.90
2019-05-01T21:37:06.301Z,3.73
2019-05-01T21:41:59.630Z,5.07
2019-05-01T21:46:53.527Z,3.63
2019-05-01T21:51:46.744Z,3.53
2019-05-01T21:56:41.471Z,4.53
2019-05-01T22:01:34.796Z,3.87
2019-05-01T22:06:27.087Z,3.43
2019-05-01T22:11:20.638Z,6.17
2019-05-01T22:16:18.451Z,5.33
2019-05-01T22:21:15.897Z,5.50
2019-05-01T22:26:09.287Z,4.80
2019-05-01T22:31:23.427Z,5.70
2019-05-01T22:36:15.493Z,6.33
2019-05-01T22:41:13.068Z,7.07
2019-05-01T22:46:06.733Z,6.97
2019-05-01T22:51:04.420Z,7.00
2019-05-01T22:56:02.221Z,5.90
2019-05-01T23:00:52.872Z,8.30
2019-05-01T23:05:46.214Z,7.47
2019-05-01T23:10:41.973Z,5.77
2019-05-01T23:15:33.463Z,6.07
2019-05-01T23:20:26.892Z,6.10
2019-05-01T23:25:20.443Z,4.40
2019-05-01T23:30:13.774Z,4.83
2019-05-01T23:35:07.135Z,4.40
2019-05-01T23:40:00.998Z,6.20
2019-05-01T23:44:54.323Z,5.57
2019-05-01T23:49:52.467Z,5.50
2019-05-01T23:54:41.270Z,5.50
2019-05-01T23:59:35.432Z,6.27
